Time;durP1;ratioP1;P1;durP2;ratioP2;P2;SDS_P1;SDS_P2;PMS_P1;PMS_P2;Temp;Humidity;BMP_temperature;BMP_pressure;BME280_temperature;BME280_humidity;BME280_pressure;Samples;Min_cycle;Max_cycle;Signal;HPM_P1;HPM_P2
2022/07/15 00:01:51;;;;;;;2.95;2.45;;;23.10;99.40;;;;;;6210899;28;88330;-65
2022/07/15 00:04:55;;;;;;;2.70;2.50;;;23.10;99.40;;;;;;6226727;28;89398;-65
2022/07/15 00:08:00;;;;;;;2.80;2.60;;;23.10;99.50;;;;;;6227508;28;89119;-65
2022/07/15 00:11:02;;;;;;;2.65;2.45;;;23.10;99.90;;;;;;6230528;28;90045;-65
2022/07/15 00:14:04;;;;;;;2.92;2.55;;;23.10;99.60;;;;;;6231993;28;89122;-65
2022/07/15 00:17:07;;;;;;;3.10;2.80;;;23.10;99.90;;;;;;6230356;28;89061;-65
2022/07/15 00:20:12;;;;;;;2.63;2.40;;;23.10;99.60;;;;;;6219254;28;89122;-65
2022/07/15 00:23:14;;;;;;;2.53;2.33;;;23.10;99.60;;;;;;6231924;28;89097;-65
2022/07/15 00:26:16;;;;;;;2.85;2.65;;;23.10;99.50;;;;;;6217836;28;88098;-65
2022/07/15 00:29:18;;;;;;;3.75;2.92;;;23.10;99.50;;;;;;6221773;28;89092;-64
2022/07/15 00:32:20;;;;;;;2.90;2.70;;;23.10;99.50;;;;;;6232159;28;88336;-65
2022/07/15 00:35:24;;;;;;;3.05;2.80;;;23.10;99.50;;;;;;6231161;28;89099;-65
2022/07/15 00:38:26;;;;;;;3.10;2.83;;;23.10;99.50;;;;;;6229359;28;89284;-65
2022/07/15 00:41:28;;;;;;;3.08;2.80;;;23.10;99.60;;;;;;6211034;28;88979;-65
2022/07/15 00:44:30;;;;;;;3.00;2.70;;;23.10;99.60;;;;;;6210768;28;89089;-65
2022/07/15 00:47:31;;;;;;;2.90;2.70;;;23.10;99.60;;;;;;6230905;28;89072;-65
2022/07/15 00:50:35;;;;;;;3.13;2.83;;;23.10;99.60;;;;;;6230507;28;88156;-65
2022/07/15 00:53:40;;;;;;;3.15;2.85;;;23.10;99.60;;;;;;6236454;28;89018;-66
2022/07/15 00:56:47;;;;;;;3.05;2.78;;;23.10;99.60;;;;;;6216988;28;88933;-65
2022/07/15 00:59:50;;;;;;;3.25;2.95;;;23.10;99.70;;;;;;6231803;28;89093;-65
2022/07/15 01:02:54;;;;;;;3.22;2.92;;;23.10;99.80;;;;;;6218376;28;88351;-65
2022/07/15 01:05:59;;;;;;;3.38;3.08;;;23.10;99.80;;;;;;6228833;28;89048;-66
2022/07/15 01:09:01;;;;;;;3.10;2.80;;;23.10;99.70;;;;;;6228927;28;89067;-65
2022/07/15 01:12:03;;;;;;;3.10;2.80;;;23.10;99.70;;;;;;6226816;28;90087;-65
2022/07/15 01:15:06;;;;;;;3.40;3.10;;;23.10;99.70;;;;;;6228338;28;89074;-65
2022/07/15 01:18:08;;;;;;;3.15;2.85;;;23.10;99.70;;;;;;6210133;28;88777;-65
2022/07/15 01:21:11;;;;;;;2.97;2.78;;;23.10;99.70;;;;;;6206900;28;88906;-65
2022/07/15 01:24:13;;;;;;;3.20;2.90;;;23.10;99.70;;;;;;6221957;28;89021;-66
2022/07/15 01:27:15;;;;;;;3.33;3.03;;;23.10;99.70;;;;;;6229352;28;89244;-66
2022/07/15 01:30:17;;;;;;;3.35;3.05;;;23.10;99.80;;;;;;6234283;28;88921;-66
2022/07/15 01:33:19;;;;;;;3.42;3.13;;;23.10;99.80;;;;;;6212330;28;88319;-65
2022/07/15 01:36:23;;;;;;;3.63;3.17;;;23.10;99.80;;;;;;6233635;28;88329;-65
2022/07/15 01:39:25;;;;;;;3.08;2.78;;;23.10;99.90;;;;;;6233912;28;89246;-65
2022/07/15 01:42:27;;;;;;;3.28;2.97;;;23.10;99.90;;;;;;6233432;28;89512;-65
2022/07/15 01:45:29;;;;;;;3.53;3.22;;;23.10;99.90;;;;;;6232274;28;88124;-65
2022/07/15 01:51:53;;;;;;;3.60;3.30;;;23.10;99.90;;;;;;6233881;28;87903;-65
2022/07/15 01:54:55;;;;;;;3.33;3.03;;;23.10;99.90;;;;;;6234391;28;89063;-65
2022/07/15 01:57:57;;;;;;;3.30;3.00;;;23.10;99.90;;;;;;6234137;28;88997;-66
2022/07/15 02:00:59;;;;;;;3.40;3.10;;;23.10;99.90;;;;;;6210426;28;89459;-66
2022/07/15 02:04:01;;;;;;;3.47;3.17;;;23.10;99.90;;;;;;6223703;28;88333;-66
2022/07/15 02:07:05;;;;;;;3.30;3.00;;;23.10;99.90;;;;;;6222494;28;89096;-66
2022/07/15 02:10:07;;;;;;;3.65;3.35;;;23.10;99.80;;;;;;6228239;28;89515;-65
2022/07/15 02:13:11;;;;;;;3.22;2.92;;;23.10;99.90;;;;;;6233003;28;90009;-66
2022/07/15 02:16:13;;;;;;;3.22;2.97;;;23.10;99.90;;;;;;6227292;28;89061;-65
2022/07/15 02:19:15;;;;;;;3.65;3.35;;;23.10;99.90;;;;;;6226675;28;89146;-65
2022/07/15 02:22:19;;;;;;;3.40;3.10;;;23.10;99.90;;;;;;6229953;28;89436;-65
2022/07/15 02:25:21;;;;;;;3.40;3.10;;;23.10;99.90;;;;;;6232942;28;89396;-66
2022/07/15 02:28:23;;;;;;;3.65;3.35;;;23.10;99.90;;;;;;6219939;28;89139;-65
2022/07/15 02:31:25;;;;;;;4.13;3.30;;;23.20;99.90;;;;;;6232982;28;89065;-65
2022/07/15 02:34:27;;;;;;;3.50;3.20;;;23.10;99.90;;;;;;6232732;28;88277;-65
2022/07/15 02:37:31;;;;;;;3.38;3.08;;;23.10;99.90;;;;;;6231439;28;89113;-65
2022/07/15 02:40:33;;;;;;;3.58;3.28;;;23.10;99.90;;;;;;6231759;28;89259;-65
2022/07/15 02:43:36;;;;;;;3.50;3.20;;;23.10;99.90;;;;;;6208901;28;90348;-65
2022/07/15 02:46:38;;;;;;;3.88;3.47;;;23.10;99.90;;;;;;6210261;28;89290;-65
2022/07/15 02:49:40;;;;;;;3.60;3.30;;;23.10;99.90;;;;;;6208970;28;87988;-65
2022/07/15 02:52:44;;;;;;;3.30;3.00;;;23.20;99.90;;;;;;6222581;28;89585;-65
2022/07/15 02:55:46;;;;;;;3.20;2.90;;;23.10;99.90;;;;;;6233179;28;89268;-65
2022/07/15 02:58:48;;;;;;;3.47;3.17;;;23.10;99.90;;;;;;6220641;28;89301;-65
2022/07/15 03:01:50;;;;;;;3.83;3.42;;;23.20;99.90;;;;;;6219405;28;89509;-65
2022/07/15 03:04:52;;;;;;;3.65;3.35;;;23.10;99.90;;;;;;6233649;28;88428;-65
2022/07/15 03:07:55;;;;;;;3.50;3.20;;;23.10;99.90;;;;;;6214826;28;89153;-65
2022/07/15 03:10:57;;;;;;;3.60;3.30;;;23.10;99.90;;;;;;6208715;28;87947;-65
2022/07/15 03:13:59;;;;;;;3.78;3.25;;;23.10;99.90;;;;;;6219076;28;90022;-65
2022/07/15 03:17:01;;;;;;;3.53;3.22;;;23.10;99.90;;;;;;6227006;28;89130;-65
2022/07/15 03:20:04;;;;;;;3.47;3.17;;;23.20;99.90;;;;;;6224887;28;89098;-65
2022/07/15 03:23:07;;;;;;;3.58;3.28;;;23.20;99.90;;;;;;6231558;28;89209;-65
2022/07/15 03:26:09;;;;;;;3.70;3.38;;;23.10;99.90;;;;;;6223114;28;89289;-65
2022/07/15 03:29:13;;;;;;;3.42;3.13;;;23.10;99.90;;;;;;6232080;28;89397;-65
2022/07/15 03:32:16;;;;;;;3.47;3.17;;;23.10;99.90;;;;;;6232045;28;89582;-65
2022/07/15 03:35:18;;;;;;;3.47;3.17;;;23.10;99.90;;;;;;6219649;28;87723;-64
2022/07/15 03:38:22;;;;;;;3.53;3.22;;;23.10;99.90;;;;;;6231772;28;89309;-65
2022/07/15 03:41:24;;;;;;;3.58;3.28;;;23.10;99.90;;;;;;6218962;28;89151;-66
2022/07/15 03:44:26;;;;;;;3.80;3.40;;;23.20;99.90;;;;;;6217739;28;90474;-64
2022/07/15 03:47:29;;;;;;;3.53;3.22;;;23.10;99.90;;;;;;6227133;28;87987;-64
2022/07/15 03:50:31;;;;;;;3.95;3.60;;;23.10;99.90;;;;;;6207975;28;88993;-64
2022/07/15 03:53:34;;;;;;;3.85;3.50;;;23.10;99.90;;;;;;6220652;28;89187;-65
2022/07/15 03:56:37;;;;;;;3.60;3.30;;;23.10;99.90;;;;;;6220739;28;89372;-65
2022/07/15 03:59:39;;;;;;;4.03;3.63;;;23.20;99.90;;;;;;6220949;28;89190;-65
2022/07/15 04:02:41;;;;;;;3.63;3.33;;;23.10;99.90;;;;;;6227879;28;89144;-64
2022/07/15 04:05:43;;;;;;;3.60;3.30;;;23.20;99.90;;;;;;6229447;28;88312;-65
2022/07/15 04:08:47;;;;;;;3.50;3.17;;;23.20;99.90;;;;;;6231159;28;89109;-65
2022/07/15 04:11:49;;;;;;;3.92;3.50;;;23.20;99.90;;;;;;6227341;28;89201;-65
2022/07/15 04:14:51;;;;;;;4.00;3.45;;;23.20;99.90;;;;;;6219006;28;90140;-65
2022/07/15 04:17:53;;;;;;;3.30;3.00;;;23.10;99.90;;;;;;6219724;28;89142;-65
2022/07/15 04:20:55;;;;;;;3.40;3.10;;;23.10;99.90;;;;;;6223758;28;87976;-65
2022/07/15 04:23:58;;;;;;;3.58;3.25;;;23.10;99.90;;;;;;6231436;28;89096;-65
2022/07/15 04:27:00;;;;;;;3.40;3.10;;;23.10;99.90;;;;;;6231368;28;89073;-65
2022/07/15 04:30:02;;;;;;;3.55;3.25;;;23.20;99.90;;;;;;6213752;28;89171;-65
2022/07/15 04:33:04;;;;;;;3.53;3.22;;;23.20;99.90;;;;;;6219486;28;89160;-65
2022/07/15 04:36:07;;;;;;;3.67;3.30;;;23.10;99.90;;;;;;6230919;28;89271;-65
2022/07/15 04:39:10;;;;;;;3.53;3.22;;;23.10;99.90;;;;;;6216438;28;89339;-65
2022/07/15 04:42:12;;;;;;;4.00;3.60;;;23.10;99.90;;;;;;6217496;28;89093;-65
2022/07/15 04:45:14;;;;;;;3.60;3.30;;;23.20;99.90;;;;;;6229913;28;90383;-64
2022/07/15 04:51:36;;;;;;;3.70;3.38;;;23.10;99.90;;;;;;6220840;28;87362;-65
2022/07/15 04:54:39;;;;;;;3.70;3.40;;;23.20;99.90;;;;;;6214501;28;87967;-65
2022/07/15 04:57:41;;;;;;;3.80;3.40;;;23.10;99.90;;;;;;6230471;28;89104;-65
2022/07/15 05:00:43;;;;;;;3.72;3.40;;;23.20;99.90;;;;;;6226429;28;90217;-65
2022/07/15 05:03:45;;;;;;;3.78;3.47;;;23.20;99.90;;;;;;6213268;28;88014;-65
2022/07/15 05:06:47;;;;;;;3.78;3.38;;;23.20;99.90;;;;;;6233196;28;88329;-65
2022/07/15 05:09:51;;;;;;;3.55;3.25;;;23.20;99.90;;;;;;6223106;28;89012;-65
2022/07/15 05:12:53;;;;;;;3.60;3.28;;;23.20;99.90;;;;;;6223005;28;89059;-65
2022/07/15 05:15:55;;;;;;;3.90;3.60;;;23.10;99.90;;;;;;6233288;28;89996;-64
2022/07/15 05:18:57;;;;;;;3.75;3.45;;;23.20;99.90;;;;;;6217104;28;89410;-65
2022/07/15 05:21:59;;;;;;;3.63;3.33;;;23.20;99.90;;;;;;6236054;28;89062;-64
2022/07/15 05:25:02;;;;;;;3.53;3.22;;;23.20;99.90;;;;;;6226600;28;89074;-65
2022/07/15 05:28:04;;;;;;;4.05;3.60;;;23.20;99.90;;;;;;6222325;28;87652;-65
2022/07/15 05:31:06;;;;;;;4.18;3.78;;;23.20;99.90;;;;;;6221627;28;89016;-64
2022/07/15 05:34:08;;;;;;;3.90;3.50;;;23.20;99.90;;;;;;6221574;28;89164;-65
2022/07/15 05:37:10;;;;;;;3.65;3.35;;;23.20;99.90;;;;;;6222816;28;88347;-64
2022/07/15 05:40:15;;;;;;;3.53;3.22;;;23.20;99.90;;;;;;6234680;28;88942;-65
2022/07/15 05:43:17;;;;;;;3.63;3.33;;;23.10;99.90;;;;;;6233358;28;88996;-65
2022/07/15 05:46:19;;;;;;;3.50;3.20;;;23.20;99.90;;;;;;6212917;28;89328;-65
2022/07/15 05:49:21;;;;;;;3.50;3.20;;;23.20;99.90;;;;;;6222639;28;89538;-65
2022/07/15 05:52:23;;;;;;;3.58;3.28;;;23.20;99.90;;;;;;6212731;28;89187;-65
2022/07/15 05:55:26;;;;;;;3.70;3.40;;;23.20;99.90;;;;;;6232545;28;89104;-65
2022/07/15 05:58:28;;;;;;;3.47;3.17;;;23.20;99.90;;;;;;6223207;28;88132;-65
2022/07/15 06:01:30;;;;;;;3.70;3.40;;;23.20;99.90;;;;;;6220687;27;89494;-65
2022/07/15 06:04:32;;;;;;;3.72;3.42;;;23.30;99.90;;;;;;6224657;28;89034;-65
2022/07/15 06:07:35;;;;;;;3.40;3.10;;;23.20;99.90;;;;;;6216621;28;88335;-65
2022/07/15 06:10:38;;;;;;;3.85;3.47;;;23.30;99.90;;;;;;6233559;28;89010;-65
2022/07/15 06:13:40;;;;;;;3.70;3.40;;;23.30;99.90;;;;;;6231502;28;90025;-64
2022/07/15 06:16:43;;;;;;;3.80;3.50;;;23.30;99.90;;;;;;6215718;28;89774;-64
2022/07/15 06:19:45;;;;;;;3.95;3.50;;;23.30;99.90;;;;;;6229086;28;89082;-64
2022/07/15 06:22:47;;;;;;;3.33;3.03;;;23.20;99.90;;;;;;6221287;28;89098;-64
2022/07/15 06:25:50;;;;;;;3.50;3.20;;;23.30;99.90;;;;;;6220222;28;89066;-65
2022/07/15 06:28:52;;;;;;;3.40;3.10;;;23.20;99.90;;;;;;6228039;28;88579;-64
2022/07/15 06:31:54;;;;;;;3.90;3.50;;;23.30;99.90;;;;;;6224631;28;89213;-65
2022/07/15 06:34:56;;;;;;;3.78;3.40;;;23.20;99.90;;;;;;6222030;28;88975;-65
2022/07/15 06:37:58;;;;;;;3.30;3.00;;;23.30;99.90;;;;;;6228547;28;88398;-64
2022/07/15 06:41:01;;;;;;;3.50;3.20;;;23.30;99.90;;;;;;6232756;28;89751;-64
2022/07/15 06:44:05;;;;;;;3.50;3.20;;;23.30;99.90;;;;;;6224018;28;89052;-64
2022/07/15 06:47:07;;;;;;;3.50;3.20;;;23.30;99.90;;;;;;6222384;28;89067;-64
2022/07/15 06:50:10;;;;;;;3.50;3.20;;;23.30;99.90;;;;;;6224342;28;88256;-65
2022/07/15 06:53:12;;;;;;;3.50;3.20;;;23.30;99.90;;;;;;6217619;28;90043;-65
2022/07/15 06:56:15;;;;;;;3.70;3.40;;;23.30;99.90;;;;;;6220441;28;89058;-64
2022/07/15 06:59:17;;;;;;;3.60;3.30;;;23.30;99.90;;;;;;6220370;28;87850;-64
2022/07/15 07:02:19;;;;;;;3.53;3.22;;;23.30;99.90;;;;;;6234497;28;88072;-64
2022/07/15 07:05:21;;;;;;;4.05;3.65;;;23.30;99.90;;;;;;6224955;28;89159;-65
2022/07/15 07:08:23;;;;;;;4.18;3.78;;;23.30;99.90;;;;;;6230131;28;87294;-65
2022/07/15 07:11:27;;;;;;;3.50;3.20;;;23.30;99.90;;;;;;6221581;28;89045;-64
2022/07/15 07:14:29;;;;;;;3.75;3.45;;;23.30;99.90;;;;;;6214521;28;89073;-64
2022/07/15 07:17:31;;;;;;;3.50;3.20;;;23.30;99.90;;;;;;6222143;28;90070;-64
2022/07/15 07:20:33;;;;;;;3.58;3.28;;;23.30;99.90;;;;;;6224136;28;88183;-65
2022/07/15 07:23:35;;;;;;;3.47;3.17;;;23.30;99.90;;;;;;6220805;28;89142;-64
2022/07/15 07:26:38;;;;;;;3.50;3.20;;;23.30;99.90;;;;;;6220276;28;89108;-64
2022/07/15 07:29:40;;;;;;;3.40;3.10;;;23.30;99.90;;;;;;6221166;28;89018;-64
2022/07/15 07:32:42;;;;;;;4.05;3.72;;;23.30;99.90;;;;;;6229498;28;89025;-64
2022/07/15 07:35:44;;;;;;;3.63;3.33;;;23.30;99.90;;;;;;6232554;28;88992;-64
2022/07/15 07:38:46;;;;;;;3.40;3.10;;;23.30;99.90;;;;;;6226948;28;88348;-64
2022/07/15 07:41:53;;;;;;;2.90;2.70;;;23.30;99.90;;;;;;6219959;28;89190;-65
2022/07/15 07:44:59;;;;;;;3.85;3.50;;;23.30;99.90;;;;;;6220823;28;89276;-65
2022/07/15 07:48:01;;;;;;;3.60;3.30;;;23.40;99.90;;;;;;6208242;28;90011;-64
2022/07/15 07:51:03;;;;;;;3.53;3.20;;;23.40;99.90;;;;;;6207660;28;87938;-65
2022/07/15 07:54:05;;;;;;;3.67;3.38;;;23.40;99.90;;;;;;6224744;28;89052;-64
2022/07/15 07:57:09;;;;;;;3.70;3.40;;;23.30;99.90;;;;;;6223781;28;89088;-65
2022/07/15 08:00:12;;;;;;;3.70;3.35;;;23.40;99.90;;;;;;6221880;28;89019;-65
2022/07/15 08:03:16;;;;;;;3.40;3.10;;;23.40;99.90;;;;;;6214235;28;89424;-65
2022/07/15 08:06:18;;;;;;;3.53;3.20;;;23.30;99.90;;;;;;6218043;28;89295;-65
2022/07/15 08:09:20;;;;;;;3.35;3.05;;;23.40;99.90;;;;;;6222843;28;87698;-65
2022/07/15 08:12:23;;;;;;;3.40;3.10;;;23.40;99.90;;;;;;6227006;28;89034;-64
2022/07/15 08:15:26;;;;;;;3.33;3.03;;;23.40;99.90;;;;;;6221044;28;89021;-64
2022/07/15 08:18:28;;;;;;;3.65;3.13;;;23.40;99.90;;;;;;6219595;28;90101;-64
2022/07/15 08:21:30;;;;;;;3.35;3.05;;;23.40;99.90;;;;;;6207491;28;88961;-64
2022/07/15 08:24:32;;;;;;;4.38;3.58;;;23.40;99.90;;;;;;6207822;28;89161;-64
2022/07/15 08:27:35;;;;;;;3.63;3.33;;;23.30;99.90;;;;;;6219932;28;89545;-64
2022/07/15 08:30:38;;;;;;;3.78;3.40;;;23.40;99.90;;;;;;6229854;28;89054;-64
2022/07/15 08:33:39;;;;;;;3.47;3.17;;;23.30;99.90;;;;;;6219089;28;89120;-64
2022/07/15 08:36:41;;;;;;;3.80;3.50;;;23.40;99.90;;;;;;6230042;28;88881;-64
2022/07/15 08:39:43;;;;;;;3.53;3.22;;;23.40;99.90;;;;;;6231034;28;88598;-64
2022/07/15 08:42:47;;;;;;;3.65;3.35;;;23.40;99.90;;;;;;6230666;28;89124;-64
2022/07/15 08:45:49;;;;;;;3.35;3.05;;;23.30;99.90;;;;;;6227929;28;87868;-64
2022/07/15 08:48:52;;;;;;;4.15;3.50;;;23.40;99.90;;;;;;6219118;28;89981;-64
2022/07/15 08:51:58;;;;;;;3.42;3.13;;;23.40;99.90;;;;;;6208286;28;89102;-64
2022/07/15 08:55:00;;;;;;;3.20;3.00;;;23.30;99.90;;;;;;6220700;28;89240;-64
2022/07/15 08:58:03;;;;;;;3.55;3.25;;;23.40;99.90;;;;;;6229400;28;87972;-64
2022/07/15 09:01:05;;;;;;;3.85;3.22;;;23.40;99.90;;;;;;6222369;28;89026;-64
2022/07/15 09:04:07;;;;;;;3.63;3.33;;;23.40;99.90;;;;;;6224750;28;87971;-64
2022/07/15 09:07:09;;;;;;;3.40;3.10;;;23.40;99.90;;;;;;6229109;28;89022;-65
2022/07/15 09:10:11;;;;;;;3.60;3.30;;;23.40;99.90;;;;;;6229491;28;88384;-65
2022/07/15 09:13:27;;;;;;;3.53;3.22;;;23.40;99.90;;;;;;6217757;28;89064;-63
2022/07/15 09:16:30;;;;;;;4.38;3.38;;;23.40;99.90;;;;;;6214191;28;89108;-63
2022/07/15 09:20:07;;;;;;;3.58;3.28;;;23.40;99.90;;;;;;6219566;28;90061;-63
2022/07/15 09:23:11;;;;;;;3.55;3.25;;;23.40;99.90;;;;;;6222123;28;89259;-63
2022/07/15 09:26:27;;;;;;;3.88;3.50;;;23.40;99.90;;;;;;6230380;28;89208;-63
2022/07/15 09:36:20;;;;;;;3.70;3.40;;;23.40;99.90;;;;;;6219321;28;88052;-63
2022/07/15 09:39:23;;;;;;;3.45;3.15;;;23.40;99.90;;;;;;6218021;28;89120;-66
2022/07/15 09:42:26;;;;;;;4.07;3.70;;;23.40;99.90;;;;;;6215778;28;88336;-63
2022/07/15 09:45:29;;;;;;;3.95;3.65;;;23.40;99.90;;;;;;6228349;28;88878;-63
2022/07/15 09:48:31;;;;;;;3.80;3.50;;;23.40;99.90;;;;;;6228007;28;89150;-63
2022/07/15 09:51:44;;;;;;;3.95;3.65;;;23.40;99.90;;;;;;6218251;28;89212;-63
2022/07/15 09:54:47;;;;;;;3.90;3.60;;;23.40;99.90;;;;;;6220523;28;89088;-63
2022/07/15 09:57:50;;;;;;;3.95;3.65;;;23.40;99.90;;;;;;6244323;28;89422;-63
2022/07/15 10:00:53;;;;;;;3.70;3.40;;;23.40;99.90;;;;;;6234263;28;89445;-63
2022/07/15 10:03:55;;;;;;;3.80;3.50;;;23.40;99.90;;;;;;6222740;28;88881;-63
2022/07/15 10:06:59;;;;;;;4.10;3.70;;;23.40;99.90;;;;;;6223071;28;89189;-63
2022/07/15 10:10:02;;;;;;;4.22;3.83;;;23.40;99.90;;;;;;6222235;28;89102;-63
2022/07/15 10:13:15;;;;;;;4.20;3.80;;;23.40;99.90;;;;;;6232205;28;88329;-63
2022/07/15 10:16:32;;;;;;;3.90;3.60;;;23.40;99.90;;;;;;6219790;28;88421;-63
2022/07/15 10:20:21;;;;;;;3.92;3.63;;;23.40;99.90;;;;;;6233573;28;89100;-63
2022/07/15 10:23:46;;;;;;;3.72;3.42;;;23.40;99.90;;;;;;6163374;28;89990;-63
2022/07/15 10:26:58;;;;;;;4.53;4.03;;;23.40;99.90;;;;;;6224769;28;89096;-63
2022/07/15 10:30:04;;;;;;;4.13;3.78;;;23.40;99.90;;;;;;6228618;28;89506;-63
2022/07/15 10:33:14;;;;;;;4.22;3.90;;;23.40;99.90;;;;;;6222481;28;89060;-64
2022/07/15 10:36:16;;;;;;;4.30;3.90;;;23.40;99.90;;;;;;6222072;28;88775;-63
2022/07/15 10:39:19;;;;;;;4.30;3.90;;;23.40;99.90;;;;;;6218480;28;88867;-63
2022/07/15 10:42:22;;;;;;;4.22;3.83;;;23.40;99.90;;;;;;6211504;28;89089;-63
2022/07/15 10:45:25;;;;;;;4.15;3.75;;;23.40;99.90;;;;;;6209776;28;88377;-63
2022/07/15 10:48:30;;;;;;;3.92;3.60;;;23.40;99.90;;;;;;6233043;28;89084;-63
2022/07/15 10:51:47;;;;;;;4.65;4.25;;;23.50;99.90;;;;;;6221367;28;89354;-63
2022/07/15 10:54:51;;;;;;;4.25;3.88;;;23.40;99.90;;;;;;6208040;28;89973;-63
2022/07/15 10:57:55;;;;;;;4.97;4.10;;;23.40;99.90;;;;;;6229532;28;88744;-63
2022/07/15 11:00:57;;;;;;;4.32;3.92;;;23.40;99.90;;;;;;6225660;28;89232;-63
2022/07/15 11:04:15;;;;;;;4.53;4.13;;;23.40;99.90;;;;;;6213999;28;89083;-65
2022/07/15 11:07:25;;;;;;;4.03;3.70;;;23.40;99.90;;;;;;6219684;28;89042;-64
2022/07/15 11:10:27;;;;;;;4.50;4.10;;;23.40;99.90;;;;;;6232545;28;88985;-64
2022/07/15 11:13:34;;;;;;;4.38;3.97;;;23.40;99.90;;;;;;6231427;28;89024;-63
2022/07/15 11:16:36;;;;;;;4.82;4.43;;;23.50;99.90;;;;;;6216967;28;88527;-63
2022/07/15 11:19:41;;;;;;;4.60;4.20;;;23.40;99.90;;;;;;6222003;28;88821;-64
2022/07/15 11:22:46;;;;;;;4.32;3.92;;;23.40;99.90;;;;;;6208444;28;89038;-64
2022/07/15 11:25:48;;;;;;;4.43;4.13;;;23.40;99.90;;;;;;6213307;28;88989;-64
2022/07/15 11:28:50;;;;;;;4.13;3.83;;;23.50;99.90;;;;;;6227588;28;89107;-64
2022/07/15 11:31:53;;;;;;;4.65;4.25;;;23.40;99.90;;;;;;6210242;28;89103;-64
2022/07/15 11:34:58;;;;;;;4.65;4.25;;;23.50;99.90;;;;;;6218376;28;89024;-64
2022/07/15 11:38:03;;;;;;;4.40;4.00;;;23.50;99.90;;;;;;6209019;28;89060;-64
2022/07/15 11:44:32;;;;;;;4.57;4.10;;;23.50;99.90;;;;;;6219737;28;87330;-64
2022/07/15 11:47:34;;;;;;;4.30;3.90;;;23.50;99.90;;;;;;6208723;28;88444;-64
2022/07/15 11:50:49;;;;;;;4.68;4.28;;;23.50;99.90;;;;;;6230191;28;89053;-64
2022/07/15 11:53:50;;;;;;;4.78;4.38;;;23.50;99.90;;;;;;6207761;28;89047;-64
2022/07/15 11:56:54;;;;;;;4.22;3.92;;;23.50;99.90;;;;;;6232270;28;90037;-64
2022/07/15 11:59:58;;;;;;;4.60;4.20;;;23.50;99.90;;;;;;6219093;28;89447;-64
2022/07/15 12:03:09;;;;;;;4.40;4.00;;;23.50;99.90;;;;;;6221361;28;89147;-64
2022/07/15 12:06:15;;;;;;;4.65;4.25;;;23.40;99.90;;;;;;6229746;28;89064;-64
2022/07/15 12:09:17;;;;;;;4.45;4.05;;;23.50;99.90;;;;;;6231761;28;87928;-64
2022/07/15 12:12:19;;;;;;;4.75;4.35;;;23.50;99.90;;;;;;6223716;28;89143;-64
2022/07/15 12:15:22;;;;;;;4.38;4.07;;;23.50;99.90;;;;;;6212922;28;89150;-64
2022/07/15 12:18:24;;;;;;;4.40;4.00;;;23.50;99.90;;;;;;6230356;28;88257;-64
2022/07/15 12:21:28;;;;;;;4.50;4.10;;;23.50;99.90;;;;;;6218667;28;88943;-64
2022/07/15 12:24:40;;;;;;;4.50;4.10;;;23.50;99.90;;;;;;6218149;28;89118;-64
2022/07/15 12:27:44;;;;;;;4.22;3.83;;;23.50;99.90;;;;;;6217334;28;90044;-64
2022/07/15 12:30:47;;;;;;;4.40;4.05;;;23.50;99.90;;;;;;6220531;28;88973;-64
2022/07/15 12:33:51;;;;;;;4.70;4.30;;;23.50;99.90;;;;;;6224422;28;89417;-64
2022/07/15 12:36:59;;;;;;;4.60;4.20;;;23.50;99.90;;;;;;6223139;28;87924;-64
2022/07/15 12:40:04;;;;;;;4.60;4.20;;;23.50;99.90;;;;;;6222869;28;89180;-64
2022/07/15 12:43:08;;;;;;;4.40;4.00;;;23.50;99.90;;;;;;6221253;28;88920;-64
2022/07/15 12:46:10;;;;;;;4.45;4.05;;;23.50;99.90;;;;;;6225512;28;89267;-64
2022/07/15 12:49:12;;;;;;;4.10;3.80;;;23.50;99.90;;;;;;6227017;28;88623;-64
2022/07/15 12:52:25;;;;;;;4.30;3.90;;;23.50;99.90;;;;;;6212883;28;88197;-64
2022/07/15 12:55:31;;;;;;;4.43;4.05;;;23.50;99.90;;;;;;6220120;28;89154;-64
2022/07/15 12:58:34;;;;;;;4.40;4.00;;;23.50;99.90;;;;;;6218814;28;90235;-64
2022/07/15 13:01:36;;;;;;;4.22;3.83;;;23.50;99.90;;;;;;6213393;28;89078;-64
2022/07/15 13:04:38;;;;;;;4.20;3.90;;;23.50;99.90;;;;;;6211036;28;89057;-64
2022/07/15 13:07:42;;;;;;;4.13;3.80;;;23.50;99.90;;;;;;6215135;28;88245;-64
2022/07/15 13:10:45;;;;;;;3.85;3.55;;;23.60;99.90;;;;;;6213433;28;89068;-64
2022/07/15 13:13:47;;;;;;;4.18;3.80;;;23.60;99.90;;;;;;6230652;28;89172;-64
2022/07/15 13:16:49;;;;;;;4.13;3.83;;;23.60;99.90;;;;;;6219870;28;89036;-64
2022/07/15 13:19:51;;;;;;;4.28;3.88;;;23.50;99.90;;;;;;6206463;28;88602;-64
2022/07/15 13:22:55;;;;;;;4.25;3.95;;;23.50;99.90;;;;;;6226976;28;89161;-64
2022/07/15 13:25:57;;;;;;;4.10;3.80;;;23.50;99.90;;;;;;6234786;28;88042;-64
2022/07/15 13:28:59;;;;;;;3.83;3.53;;;23.60;99.90;;;;;;6228072;28;90348;-64
2022/07/15 13:32:01;;;;;;;4.13;3.83;;;23.60;99.90;;;;;;6222531;28;89058;-64
2022/07/15 13:35:03;;;;;;;4.28;3.88;;;23.50;99.90;;;;;;6212457;28;88077;-64
2022/07/15 13:38:07;;;;;;;3.70;3.40;;;23.50;99.90;;;;;;6221509;28;89102;-64
2022/07/15 13:41:09;;;;;;;4.00;3.70;;;23.50;99.90;;;;;;6223097;28;89228;-64
2022/07/15 13:44:11;;;;;;;3.65;3.35;;;23.50;99.90;;;;;;6224363;28;89263;-64
2022/07/15 13:47:13;;;;;;;4.32;4.03;;;23.50;99.90;;;;;;6209564;28;89532;-64
2022/07/15 13:53:35;;;;;;;3.90;3.60;;;23.60;99.90;;;;;;6228674;28;87285;-64
2022/07/15 13:56:37;;;;;;;3.72;3.42;;;23.60;99.90;;;;;;6213400;28;89347;-64
2022/07/15 13:59:39;;;;;;;3.92;3.47;;;23.60;99.90;;;;;;6232767;28;90060;-64
2022/07/15 14:02:42;;;;;;;3.80;3.50;;;23.60;99.90;;;;;;6232434;28;88882;-64
2022/07/15 14:05:44;;;;;;;3.65;3.35;;;23.60;99.90;;;;;;6210641;28;89250;-64
2022/07/15 14:08:47;;;;;;;3.70;3.40;;;23.60;99.90;;;;;;6234450;28;89129;-64
2022/07/15 14:11:49;;;;;;;3.92;3.63;;;23.60;99.90;;;;;;6233090;28;88299;-64
2022/07/15 14:14:51;;;;;;;3.80;3.50;;;23.60;99.90;;;;;;6221223;28;89056;-64
2022/07/15 14:17:53;;;;;;;3.53;3.22;;;23.60;99.90;;;;;;6221102;28;89387;-64
2022/07/15 14:20:55;;;;;;;3.72;3.42;;;23.60;99.90;;;;;;6221184;28;86393;-64
2022/07/15 14:23:59;;;;;;;3.63;3.33;;;23.60;99.90;;;;;;6230595;28;89075;-65
2022/07/15 14:27:01;;;;;;;4.40;4.00;;;23.60;99.90;;;;;;6223483;28;89152;-64
2022/07/15 14:30:04;;;;;;;3.78;3.47;;;23.60;99.90;;;;;;6210165;28;90214;-64
2022/07/15 14:33:06;;;;;;;3.40;3.10;;;23.60;99.90;;;;;;6221178;28;89232;-64
2022/07/15 14:36:09;;;;;;;3.90;3.58;;;23.60;99.90;;;;;;6219325;28;89053;-64
2022/07/15 14:39:12;;;;;;;3.20;3.00;;;23.60;99.90;;;;;;6211729;28;89449;-64
2022/07/15 14:42:14;;;;;;;3.45;3.15;;;23.60;99.90;;;;;;6209186;28;89129;-65
2022/07/15 14:45:16;;;;;;;3.67;3.38;;;23.60;99.90;;;;;;6222372;28;89353;-64
2022/07/15 14:48:18;;;;;;;3.47;3.17;;;23.60;99.90;;;;;;6210799;28;89221;-64
2022/07/15 14:51:20;;;;;;;3.60;3.30;;;23.60;99.90;;;;;;6214880;28;88584;-65
2022/07/15 14:54:24;;;;;;;3.65;3.35;;;23.60;99.90;;;;;;6228622;28;89081;-64
2022/07/15 14:57:26;;;;;;;3.40;3.13;;;23.60;99.90;;;;;;6232704;28;89112;-64
2022/07/15 15:00:28;;;;;;;3.03;2.83;;;23.60;99.90;;;;;;6222057;28;90152;-64
2022/07/15 15:03:30;;;;;;;3.30;3.00;;;23.60;99.90;;;;;;6208948;28;89578;-64
2022/07/15 15:06:32;;;;;;;3.63;3.33;;;23.60;99.90;;;;;;6217009;28;89177;-64
2022/07/15 15:09:35;;;;;;;4.00;3.38;;;23.60;99.90;;;;;;6219466;28;89486;-64
2022/07/15 15:12:38;;;;;;;3.75;3.15;;;23.60;99.90;;;;;;6227832;28;89383;-64
2022/07/15 15:15:39;;;;;;;3.70;3.40;;;23.60;99.90;;;;;;6223912;28;89348;-64
2022/07/15 15:18:41;;;;;;;3.78;3.47;;;23.60;99.90;;;;;;6219943;28;88998;-64
2022/07/15 15:21:43;;;;;;;3.25;3.05;;;23.60;99.90;;;;;;6216392;28;88339;-64
2022/07/15 15:24:47;;;;;;;3.50;3.20;;;23.60;99.90;;;;;;6210059;28;88076;-64
2022/07/15 15:27:49;;;;;;;3.30;3.00;;;23.60;99.90;;;;;;6210745;28;88497;-64
2022/07/15 15:30:51;;;;;;;3.25;3.00;;;23.60;99.90;;;;;;6228293;28;90294;-64
2022/07/15 15:33:53;;;;;;;3.10;2.80;;;23.60;99.90;;;;;;6225979;28;89054;-64
2022/07/15 15:36:56;;;;;;;3.25;2.92;;;23.60;99.90;;;;;;6229238;28;89383;-64
2022/07/15 15:39:59;;;;;;;3.40;3.10;;;23.60;99.90;;;;;;6230111;28;87965;-64
2022/07/15 15:43:03;;;;;;;3.25;3.00;;;23.60;99.90;;;;;;6211667;28;89527;-64
2022/07/15 15:46:05;;;;;;;3.00;2.80;;;23.60;99.90;;;;;;6218817;28;89116;-64
2022/07/15 15:49:08;;;;;;;3.17;2.88;;;23.60;99.90;;;;;;6223133;28;89107;-64
2022/07/15 15:52:10;;;;;;;3.00;2.80;;;23.70;99.90;;;;;;6228609;28;88388;-64
2022/07/15 15:55:13;;;;;;;3.22;2.92;;;23.60;99.90;;;;;;6223349;28;89023;-64
2022/07/15 15:58:15;;;;;;;3.25;3.03;;;23.60;99.90;;;;;;6218518;28;89124;-64
2022/07/15 16:01:17;;;;;;;3.20;2.90;;;23.60;99.90;;;;;;6229079;28;90290;-64
2022/07/15 16:04:19;;;;;;;3.20;2.90;;;23.60;99.90;;;;;;6224568;28;89093;-64
2022/07/15 16:07:21;;;;;;;3.33;3.03;;;23.60;99.90;;;;;;6222089;28;88428;-64
2022/07/15 16:10:25;;;;;;;3.20;2.97;;;23.60;99.90;;;;;;6224735;28;89197;-64
2022/07/15 16:13:27;;;;;;;3.30;3.00;;;23.60;99.90;;;;;;6227940;28;89053;-65
2022/07/15 16:16:29;;;;;;;3.28;2.97;;;23.70;99.90;;;;;;6219441;28;89252;-64